createdAt,value
2023-05-19T00:02:12.309Z,15.65
2023-05-19T00:04:58.283Z,8.23
2023-05-19T00:07:45.329Z,8.68
2023-05-19T00:10:33.275Z,10.52
2023-05-19T00:13:19.714Z,10.48
2023-05-19T00:16:06.321Z,9.07
2023-05-19T00:18:51.815Z,13.52
2023-05-19T00:21:40.472Z,11.57
2023-05-19T00:24:25.928Z,11.95
2023-05-19T00:27:11.338Z,12.60
2023-05-19T00:29:57.525Z,11.48
2023-05-19T00:32:42.861Z,15.45
2023-05-19T00:35:28.117Z,14.55
2023-05-19T00:38:13.285Z,14.10
2023-05-19T00:41:00.248Z,12.55
2023-05-19T00:43:46.838Z,10.38
2023-05-19T00:46:32.341Z,16.00
2023-05-19T00:49:17.609Z,15.05
2023-05-19T00:52:06.037Z,12.25
2023-05-19T00:54:53.264Z,16.38
2023-05-19T00:57:38.888Z,12.90
2023-05-19T01:00:24.788Z,13.32
2023-05-19T01:03:11.430Z,14.00
2023-05-19T01:06:01.715Z,12.07
2023-05-19T01:08:47.428Z,17.75
2023-05-19T01:11:32.729Z,16.63
2023-05-19T01:14:20.493Z,12.27
2023-05-19T01:17:15.227Z,14.35
2023-05-19T01:20:11.053Z,14.40
2023-05-19T01:23:36.704Z,15.07
2023-05-19T01:26:54.731Z,13.75
2023-05-19T01:30:25.394Z,13.23
2023-05-19T01:33:15.217Z,12.65
2023-05-19T01:36:04.012Z,13.63
2023-05-19T01:38:56.024Z,13.63
2023-05-19T01:41:42.442Z,11.93
2023-05-19T01:44:28.804Z,13.57
2023-05-19T01:47:15.114Z,11.48
2023-05-19T01:50:01.115Z,12.50
2023-05-19T01:52:46.389Z,10.63
2023-05-19T01:55:31.856Z,11.70
2023-05-19T01:58:39.683Z,13.25
2023-05-19T02:01:48.191Z,12.52
2023-05-19T02:04:48.101Z,12.02
2023-05-19T02:08:01.615Z,13.80
2023-05-19T02:11:07.652Z,13.50
2023-05-19T02:14:01.158Z,14.05
2023-05-19T02:16:49.145Z,13.85
2023-05-19T02:19:39.113Z,9.70
2023-05-19T02:22:24.618Z,11.75
2023-05-19T02:25:11.517Z,17.02
2023-05-19T02:27:58.594Z,12.45
2023-05-19T02:30:43.893Z,11.93
2023-05-19T02:33:30.400Z,14.73
2023-05-19T02:36:15.979Z,11.02
2023-05-19T02:39:04.718Z,13.10
2023-05-19T02:41:50.400Z,12.18
2023-05-19T02:44:36.411Z,12.07
2023-05-19T02:47:22.164Z,13.43
2023-05-19T02:50:08.752Z,14.40
2023-05-19T02:52:54.304Z,13.95
2023-05-19T02:55:39.621Z,14.35
2023-05-19T02:58:24.836Z,15.48
2023-05-19T03:01:11.101Z,14.70
2023-05-19T03:03:56.340Z,13.00
2023-05-19T03:06:42.425Z,14.45
2023-05-19T03:09:27.790Z,12.65
2023-05-19T03:12:12.980Z,15.25
2023-05-19T03:14:58.364Z,15.57
2023-05-19T03:17:43.876Z,15.65
2023-05-19T03:20:30.581Z,15.75
2023-05-19T03:23:16.428Z,11.98
2023-05-19T03:26:01.659Z,16.48
2023-05-19T03:28:46.975Z,14.32
2023-05-19T03:31:32.489Z,17.05
2023-05-19T03:34:18.103Z,13.73
2023-05-19T03:37:03.395Z,15.35
2023-05-19T03:39:49.144Z,14.85
2023-05-19T03:42:34.350Z,15.35
2023-05-19T03:45:20.174Z,13.25
2023-05-19T03:48:09.187Z,12.98
2023-05-19T03:51:17.580Z,13.85
2023-05-19T03:54:04.562Z,16.50
2023-05-19T03:56:50.269Z,13.75
2023-05-19T03:59:37.215Z,16.50
2023-05-19T04:02:23.000Z,11.27
2023-05-19T04:05:08.564Z,14.05
2023-05-19T04:07:55.533Z,11.27
2023-05-19T04:10:41.867Z,13.73
2023-05-19T04:13:27.295Z,13.07
2023-05-19T04:16:15.352Z,14.50
2023-05-19T04:19:01.288Z,13.57
2023-05-19T04:21:46.988Z,11.80
2023-05-19T04:24:33.617Z,12.95
2023-05-19T04:27:19.506Z,14.77
2023-05-19T04:30:06.552Z,15.02
2023-05-19T04:32:52.103Z,14.45
2023-05-19T04:35:38.226Z,14.25
2023-05-19T04:38:23.742Z,13.75
2023-05-19T04:41:10.600Z,13.90
2023-05-19T04:43:57.546Z,14.65
2023-05-19T04:46:48.422Z,13.57
2023-05-19T04:49:40.078Z,11.38
2023-05-19T04:52:28.953Z,11.43
2023-05-19T04:55:14.476Z,13.43
2023-05-19T04:58:00.963Z,12.13
2023-05-19T05:00:46.958Z,13.40
2023-05-19T05:03:34.552Z,12.15
2023-05-19T05:06:23.452Z,10.93
2023-05-19T05:09:11.556Z,14.30
2023-05-19T05:11:57.500Z,12.88
2023-05-19T05:14:43.806Z,12.18
2023-05-19T05:17:30.330Z,11.07
2023-05-19T05:20:18.887Z,10.85
2023-05-19T05:23:05.304Z,13.30
2023-05-19T05:25:53.009Z,9.52
2023-05-19T05:28:38.674Z,8.68
2023-05-19T05:31:24.731Z,9.02
2023-05-19T05:34:10.421Z,10.30
2023-05-19T05:36:58.503Z,7.53
2023-05-19T05:39:44.135Z,8.40
2023-05-19T05:42:29.772Z,7.10
2023-05-19T05:45:15.921Z,10.07
2023-05-19T05:48:02.378Z,8.32
2023-05-19T05:50:50.875Z,6.68
2023-05-19T05:53:49.627Z,6.93
2023-05-19T05:56:37.142Z,6.50
2023-05-19T05:59:24.679Z,7.68
2023-05-19T06:02:10.289Z,8.27
2023-05-19T06:04:55.958Z,6.32
2023-05-19T06:07:44.177Z,9.32
2023-05-19T06:10:32.751Z,7.82
2023-05-19T06:13:24.162Z,9.48
2023-05-19T06:16:09.936Z,7.90
2023-05-19T06:18:59.721Z,9.02
2023-05-19T06:21:44.934Z,10.07
2023-05-19T06:24:30.977Z,6.03
2023-05-19T06:27:16.338Z,8.13
2023-05-19T06:30:02.833Z,7.80
2023-05-19T06:32:52.770Z,8.68
2023-05-19T06:35:39.090Z,7.18
2023-05-19T06:38:24.842Z,9.70
2023-05-19T06:41:10.124Z,10.57
2023-05-19T06:43:56.525Z,12.00
2023-05-19T06:46:41.915Z,5.90
2023-05-19T06:49:29.394Z,13.15
2023-05-19T06:52:14.736Z,11.32
2023-05-19T06:55:00.154Z,5.95
2023-05-19T06:57:45.551Z,8.07
2023-05-19T07:00:32.543Z,6.22
2023-05-19T07:03:22.454Z,6.70
2023-05-19T07:06:10.871Z,4.40
2023-05-19T07:08:56.690Z,7.93
2023-05-19T07:11:42.968Z,5.38
2023-05-19T07:14:29.594Z,7.95
2023-05-19T07:17:15.713Z,8.18
2023-05-19T07:20:06.773Z,7.65
2023-05-19T07:22:52.300Z,6.50
2023-05-19T07:25:37.750Z,7.63
2023-05-19T07:28:23.088Z,7.63
2023-05-19T07:31:08.473Z,6.55
2023-05-19T07:33:54.777Z,6.72
2023-05-19T07:36:41.482Z,6.60
2023-05-19T07:39:29.643Z,8.93
2023-05-19T07:42:15.365Z,9.82
2023-05-19T07:45:01.289Z,7.47
2023-05-19T07:47:46.885Z,20.50
2023-05-19T07:50:32.252Z,8.05
2023-05-19T07:53:19.628Z,9.93
2023-05-19T07:56:05.411Z,4.75
2023-05-19T07:58:51.768Z,17.02
2023-05-19T08:01:37.421Z,22.75
2023-05-19T08:04:22.867Z,7.85
2023-05-19T08:07:08.180Z,4.75
2023-05-19T08:09:53.654Z,11.13
2023-05-19T08:12:39.031Z,7.72
2023-05-19T08:15:25.324Z,10.45
2023-05-19T08:18:10.597Z,7.20
2023-05-19T08:20:56.115Z,7.22
2023-05-19T08:23:41.820Z,9.75
2023-05-19T08:26:27.903Z,5.78
2023-05-19T08:29:13.517Z,14.05
2023-05-19T08:31:58.672Z,7.93
2023-05-19T08:34:43.948Z,7.65
2023-05-19T08:37:29.333Z,9.40
2023-05-19T08:40:18.342Z,9.57
2023-05-19T08:43:03.836Z,6.68
2023-05-19T08:45:49.306Z,12.23
2023-05-19T08:48:37.340Z,14.82
2023-05-19T08:51:42.856Z,5.95
2023-05-19T08:54:45.873Z,4.75
2023-05-19T08:57:32.974Z,6.75
2023-05-19T09:00:20.721Z,5.10
2023-05-19T09:03:18.240Z,6.13
2023-05-19T09:06:08.912Z,3.75
2023-05-19T09:08:54.322Z,4.53
2023-05-19T09:11:39.593Z,7.32
2023-05-19T09:14:25.013Z,7.20
2023-05-19T09:17:10.537Z,4.10
2023-05-19T09:19:56.176Z,6.82
2023-05-19T09:22:47.496Z,6.35
2023-05-19T09:25:32.999Z,4.90
2023-05-19T09:28:30.437Z,7.35
2023-05-19T09:31:15.727Z,4.05
2023-05-19T09:34:01.559Z,5.13
2023-05-19T09:36:53.136Z,6.78
2023-05-19T09:39:38.850Z,4.20
2023-05-19T09:42:30.093Z,3.90
2023-05-19T09:45:16.466Z,5.75
2023-05-19T09:48:05.799Z,7.70
2023-05-19T09:50:54.320Z,5.60
2023-05-19T09:53:39.890Z,4.28
2023-05-19T09:56:34.555Z,4.57
2023-05-19T09:59:24.113Z,5.00
2023-05-19T10:02:20.738Z,4.68
2023-05-19T10:05:10.332Z,3.22
2023-05-19T10:07:55.968Z,7.65
2023-05-19T10:10:48.353Z,5.70
2023-05-19T10:13:39.995Z,6.97
2023-05-19T10:16:27.870Z,5.32
2023-05-19T10:19:17.220Z,7.65
2023-05-19T10:22:04.280Z,4.22
2023-05-19T10:24:52.210Z,6.25
2023-05-19T10:27:44.813Z,5.90
2023-05-19T10:30:35.845Z,5.53
2023-05-19T10:33:42.234Z,5.50
2023-05-19T10:36:47.641Z,5.28
2023-05-19T10:39:36.122Z,3.30
2023-05-19T10:42:44.894Z,5.43
2023-05-19T10:45:36.501Z,4.28
2023-05-19T10:48:23.008Z,6.28
2023-05-19T10:51:12.206Z,4.22
2023-05-19T10:54:12.259Z,4.63
2023-05-19T10:57:03.470Z,4.05
2023-05-19T10:59:52.365Z,4.45
2023-05-19T11:02:42.352Z,4.03
2023-05-19T11:05:30.009Z,13.05
2023-05-19T11:08:35.349Z,3.38
2023-05-19T11:11:23.329Z,5.00
2023-05-19T11:14:14.992Z,7.50
2023-05-19T11:17:00.968Z,4.38
2023-05-19T11:19:59.269Z,3.53
2023-05-19T11:23:04.558Z,4.18
2023-05-19T11:25:53.874Z,4.22
2023-05-19T11:28:40.781Z,5.65
2023-05-19T11:31:28.199Z,6.22
2023-05-19T11:34:18.008Z,7.13
2023-05-19T11:37:06.197Z,4.50
2023-05-19T11:39:53.117Z,4.95
2023-05-19T11:42:38.603Z,5.93
2023-05-19T11:45:29.405Z,5.53
2023-05-19T11:48:18.388Z,6.00
2023-05-19T11:51:07.332Z,5.35
2023-05-19T11:53:54.722Z,5.03
2023-05-19T11:56:41.687Z,4.40
2023-05-19T11:59:36.392Z,6.00
2023-05-19T12:02:26.098Z,5.43
2023-05-19T12:05:20.254Z,3.72
2023-05-19T12:08:06.293Z,4.85
2023-05-19T12:10:52.526Z,3.83
2023-05-19T12:13:38.624Z,4.30
2023-05-19T12:16:33.351Z,6.40
2023-05-19T12:19:19.120Z,4.57
2023-05-19T12:22:07.564Z,5.00
2023-05-19T12:24:53.506Z,5.93
2023-05-19T12:27:39.348Z,3.72
2023-05-19T12:30:33.186Z,3.60
2023-05-19T12:36:06.318Z,5.22
2023-05-19T12:38:55.556Z,7.45
2023-05-19T12:41:40.756Z,7.65
2023-05-19T12:44:27.829Z,6.05
2023-05-19T12:47:20.242Z,4.68
2023-05-19T12:50:09.266Z,5.00
2023-05-19T12:52:54.604Z,4.95
2023-05-19T12:55:45.252Z,7.95
2023-05-19T12:58:34.208Z,6.63
2023-05-19T13:01:20.081Z,2.92
2023-05-19T13:04:06.866Z,4.22
2023-05-19T13:06:55.739Z,3.63
2023-05-19T13:09:41.291Z,5.88
2023-05-19T13:12:27.122Z,8.60
2023-05-19T13:15:12.413Z,4.43
2023-05-19T13:17:58.343Z,5.82
2023-05-19T13:20:46.441Z,5.28
2023-05-19T13:23:31.964Z,4.65
2023-05-19T13:26:17.559Z,5.88
2023-05-19T13:29:03.162Z,3.30
2023-05-19T13:31:48.562Z,5.95
2023-05-19T13:34:33.745Z,3.92
2023-05-19T13:37:19.066Z,4.85
2023-05-19T13:40:05.193Z,5.55
2023-05-19T13:42:50.695Z,6.13
2023-05-19T13:45:35.934Z,6.72
2023-05-19T13:48:21.386Z,5.35
2023-05-19T13:51:06.765Z,7.75
2023-05-19T13:53:51.966Z,4.82
2023-05-19T13:56:37.353Z,5.10
2023-05-19T13:59:23.110Z,7.85
2023-05-19T14:02:11.451Z,4.65
2023-05-19T14:05:02.641Z,5.03
2023-05-19T14:07:48.378Z,4.10
2023-05-19T14:10:34.109Z,5.43
2023-05-19T14:13:32.584Z,8.93
2023-05-19T14:16:21.977Z,3.92
2023-05-19T14:19:08.572Z,4.05
2023-05-19T14:21:54.057Z,4.05
2023-05-19T14:24:40.629Z,4.10
2023-05-19T14:27:28.524Z,6.47
2023-05-19T14:30:14.126Z,4.45
2023-05-19T14:32:59.562Z,7.53
2023-05-19T14:35:47.374Z,5.07
2023-05-19T14:38:32.845Z,5.95
2023-05-19T14:41:18.148Z,5.35
2023-05-19T14:44:05.984Z,4.82
2023-05-19T14:46:51.235Z,3.20
2023-05-19T14:49:36.605Z,4.15
2023-05-19T14:52:22.625Z,4.75
2023-05-19T14:55:11.066Z,5.40
2023-05-19T14:57:59.435Z,3.42
2023-05-19T15:00:44.590Z,3.75
2023-05-19T15:03:29.952Z,4.40
2023-05-19T15:06:15.171Z,4.45
2023-05-19T15:09:01.487Z,5.25
2023-05-19T15:11:47.052Z,4.45
2023-05-19T15:14:32.183Z,5.30
2023-05-19T15:17:19.720Z,4.78
2023-05-19T15:20:06.648Z,5.18
2023-05-19T15:22:52.041Z,3.25
2023-05-19T15:25:37.561Z,4.50
2023-05-19T15:28:23.055Z,4.05
2023-05-19T15:31:08.426Z,4.07
2023-05-19T15:33:53.761Z,3.97
2023-05-19T15:36:39.043Z,6.63
2023-05-19T15:39:24.450Z,3.85
2023-05-19T15:42:09.835Z,4.18
2023-05-19T15:44:55.004Z,6.40
2023-05-19T15:47:40.220Z,4.88
2023-05-19T15:50:26.742Z,5.03
2023-05-19T15:53:12.182Z,4.70
2023-05-19T15:55:57.519Z,4.55
2023-05-19T15:58:43.495Z,3.90
2023-05-19T16:01:29.376Z,4.70
2023-05-19T16:04:14.665Z,5.20
2023-05-19T16:07:00.305Z,4.55
2023-05-19T16:09:45.666Z,4.82
2023-05-19T16:12:31.529Z,3.70
2023-05-19T16:15:17.001Z,3.00
2023-05-19T16:18:02.089Z,4.60
2023-05-19T16:20:47.716Z,5.25
2023-05-19T16:23:33.081Z,4.40
2023-05-19T16:26:18.690Z,2.95
2023-05-19T16:29:04.422Z,6.53
2023-05-19T16:31:49.956Z,6.63
2023-05-19T16:34:35.713Z,5.75
2023-05-19T16:37:21.276Z,4.38
2023-05-19T16:40:07.496Z,2.88
2023-05-19T16:42:53.581Z,6.38
2023-05-19T16:45:38.749Z,5.55
2023-05-19T16:48:24.304Z,3.33
2023-05-19T16:51:09.463Z,4.60
2023-05-19T16:53:54.828Z,2.53
2023-05-19T16:56:40.147Z,6.95
2023-05-19T16:59:25.373Z,4.38
2023-05-19T17:02:10.782Z,4.45
2023-05-19T17:04:56.145Z,4.10
2023-05-19T17:07:41.398Z,3.72
2023-05-19T17:10:26.681Z,4.30
2023-05-19T17:13:11.974Z,5.25
2023-05-19T17:15:57.340Z,4.30
2023-05-19T17:18:43.780Z,3.35
2023-05-19T17:21:30.175Z,3.00
2023-05-19T17:24:16.357Z,3.03
2023-05-19T17:27:01.942Z,3.17
2023-05-19T17:29:47.510Z,5.95
2023-05-19T17:32:35.923Z,3.72
2023-05-19T17:35:21.468Z,3.38
2023-05-19T17:38:07.206Z,3.03
2023-05-19T17:40:53.517Z,8.98
2023-05-19T17:43:41.322Z,2.65
2023-05-19T17:46:26.923Z,2.28
2023-05-19T17:49:13.133Z,3.88
2023-05-19T17:51:58.795Z,5.15
2023-05-19T17:54:44.765Z,2.58
2023-05-19T17:57:33.114Z,2.53
2023-05-19T18:00:19.477Z,4.28
2023-05-19T18:03:06.210Z,4.03
2023-05-19T18:05:52.123Z,3.03
2023-05-19T18:08:38.546Z,2.60
2023-05-19T18:11:24.295Z,4.95
2023-05-19T18:14:10.174Z,2.28
2023-05-19T18:16:55.626Z,4.05
2023-05-19T18:19:41.087Z,2.33
2023-05-19T18:22:26.675Z,3.78
2023-05-19T18:25:12.019Z,2.88
2023-05-19T18:27:57.394Z,1.45
2023-05-19T18:30:43.738Z,2.85
2023-05-19T18:33:31.044Z,5.18
2023-05-19T18:36:16.629Z,5.13
2023-05-19T18:39:02.143Z,4.15
2023-05-19T18:41:47.835Z,3.28
2023-05-19T18:44:33.899Z,6.30
2023-05-19T18:47:19.766Z,3.53
2023-05-19T18:50:09.307Z,4.07
2023-05-19T18:52:54.816Z,3.50
2023-05-19T18:55:40.258Z,5.20
2023-05-19T18:58:25.454Z,3.22
2023-05-19T19:01:10.938Z,4.18
2023-05-19T19:03:55.962Z,3.55
2023-05-19T19:06:42.050Z,5.32
2023-05-19T19:09:28.341Z,3.65
2023-05-19T19:12:13.572Z,3.03
2023-05-19T19:14:58.836Z,3.30
2023-05-19T19:17:45.267Z,4.25
2023-05-19T19:20:30.692Z,5.22
2023-05-19T19:23:16.181Z,4.55
2023-05-19T19:26:01.872Z,5.30
2023-05-19T19:28:47.357Z,2.67
2023-05-19T19:31:33.428Z,4.65
2023-05-19T19:34:19.896Z,4.38
2023-05-19T19:37:11.125Z,4.80
2023-05-19T19:39:59.555Z,7.57
2023-05-19T19:42:47.835Z,6.25
2023-05-19T19:45:39.022Z,3.28
2023-05-19T19:48:31.266Z,5.75
2023-05-19T19:51:25.138Z,5.20
2023-05-19T19:54:24.882Z,5.75
2023-05-19T19:57:12.797Z,4.30
2023-05-19T20:00:04.294Z,7.60
2023-05-19T20:03:02.990Z,3.20
2023-05-19T20:05:50.037Z,3.88
2023-05-19T20:08:35.927Z,4.25
2023-05-19T20:11:23.119Z,3.90
2023-05-19T20:14:08.747Z,2.83
2023-05-19T20:16:53.829Z,4.63
2023-05-19T20:19:39.102Z,5.13
2023-05-19T20:22:24.474Z,2.13
2023-05-19T20:25:09.914Z,4.03
2023-05-19T20:27:55.188Z,2.25
2023-05-19T20:30:41.067Z,3.83
2023-05-19T20:33:26.289Z,2.58
2023-05-19T20:36:11.678Z,3.97
2023-05-19T20:38:56.799Z,2.55
2023-05-19T20:41:42.138Z,5.03
2023-05-19T20:44:27.287Z,3.65
2023-05-19T20:47:12.642Z,2.75
2023-05-19T20:49:58.821Z,6.13
2023-05-19T20:52:44.385Z,6.10
2023-05-19T20:55:29.667Z,3.53
2023-05-19T20:58:14.980Z,3.90
2023-05-19T21:01:00.536Z,2.28
2023-05-19T21:03:45.870Z,3.95
2023-05-19T21:06:31.782Z,3.85
2023-05-19T21:09:17.148Z,4.97
2023-05-19T21:12:02.871Z,5.80
2023-05-19T21:14:48.260Z,4.20
2023-05-19T21:17:33.407Z,5.32
2023-05-19T21:20:18.830Z,3.33
2023-05-19T21:23:04.637Z,5.38
2023-05-19T21:25:50.682Z,3.08
2023-05-19T21:28:36.365Z,3.03
2023-05-19T21:31:21.709Z,3.33
2023-05-19T21:34:09.841Z,2.88
2023-05-19T21:36:55.331Z,4.13
2023-05-19T21:39:40.526Z,4.68
2023-05-19T21:42:26.070Z,3.80
2023-05-19T21:45:11.665Z,3.17
2023-05-19T21:47:57.131Z,4.78
2023-05-19T21:50:42.301Z,5.88
2023-05-19T21:53:27.668Z,3.42
2023-05-19T21:56:12.863Z,3.45
2023-05-19T21:58:58.118Z,2.88
2023-05-19T22:01:43.391Z,4.07
2023-05-19T22:04:31.524Z,4.30
2023-05-19T22:07:16.775Z,4.20
2023-05-19T22:10:02.722Z,4.07
2023-05-19T22:12:47.959Z,5.00
2023-05-19T22:15:33.197Z,4.18
2023-05-19T22:18:18.447Z,4.35
2023-05-19T22:21:03.862Z,2.90
2023-05-19T22:23:49.235Z,5.72
2023-05-19T22:26:35.785Z,5.35
2023-05-19T22:29:21.167Z,5.15
2023-05-19T22:32:11.769Z,2.83
2023-05-19T22:34:57.188Z,3.50
2023-05-19T22:37:42.485Z,3.53
2023-05-19T22:40:28.115Z,3.00
2023-05-19T22:43:13.228Z,4.15
2023-05-19T22:45:58.650Z,3.33
2023-05-19T22:48:43.854Z,5.15
2023-05-19T22:51:29.056Z,4.30
2023-05-19T22:54:14.524Z,4.78
2023-05-19T22:56:59.764Z,3.35
2023-05-19T22:59:45.395Z,6.03
2023-05-19T23:02:30.837Z,5.35
2023-05-19T23:05:16.320Z,6.00
2023-05-19T23:08:01.946Z,9.15
2023-05-19T23:10:47.128Z,6.82
2023-05-19T23:13:32.445Z,3.80
2023-05-19T23:16:17.747Z,5.10
2023-05-19T23:19:03.171Z,9.23
2023-05-19T23:21:49.204Z,4.78
2023-05-19T23:24:34.650Z,4.97
2023-05-19T23:27:19.996Z,5.40
2023-05-19T23:30:06.175Z,5.25
2023-05-19T23:32:52.975Z,5.55
2023-05-19T23:35:39.557Z,9.73
2023-05-19T23:38:25.633Z,4.40
2023-05-19T23:41:11.108Z,5.97
2023-05-19T23:43:56.566Z,6.72
2023-05-19T23:46:41.958Z,6.72
2023-05-19T23:49:27.289Z,5.38
2023-05-19T23:52:14.082Z,4.15
2023-05-19T23:54:59.385Z,9.20
2023-05-19T23:57:44.702Z,7.85
